Time;durP1;ratioP1;P1;durP2;ratioP2;P2;SDS_P1;SDS_P2;PMS_P1;PMS_P2;Temp;Humidity;BMP_temperature;BMP_pressure;BME280_temperature;BME280_humidity;BME280_pressure;Samples;Min_cycle;Max_cycle;Signal;HPM_P1;HPM_P2
2022/08/09 00:01:39;;;;;;;0.00;0.00;;;14.70;99.90;;;;;;5059979;28;20512;-81
2022/08/09 00:04:06;;;;;;;0.20;0.20;;;14.70;99.90;;;;;;5093251;28;20494;-81
2022/08/09 00:06:32;;;;;;;0.32;0.20;;;14.70;99.90;;;;;;5092640;28;20446;-80
2022/08/09 00:08:59;;;;;;;0.45;0.30;;;14.60;99.90;;;;;;5092921;28;20093;-81
2022/08/09 00:11:26;;;;;;;0.10;0.10;;;14.60;99.90;;;;;;5059268;28;20040;-80
2022/08/09 00:13:52;;;;;;;0.30;0.17;;;14.60;99.90;;;;;;5066847;28;20037;-80
2022/08/09 00:16:19;;;;;;;0.25;0.20;;;14.60;99.90;;;;;;5067664;28;20044;-80
2022/08/09 00:18:48;;;;;;;0.10;0.10;;;14.60;99.90;;;;;;5076033;28;20504;-80
2022/08/09 00:21:14;;;;;;;0.32;0.32;;;14.60;99.90;;;;;;5060247;28;20032;-81
2022/08/09 00:23:41;;;;;;;0.20;0.20;;;14.50;99.90;;;;;;5092680;28;20121;-81
2022/08/09 00:26:09;;;;;;;0.20;0.10;;;14.50;99.90;;;;;;5092987;28;20040;-81
2022/08/09 00:28:36;;;;;;;0.10;0.10;;;14.50;99.90;;;;;;5092314;28;20067;-80
2022/08/09 00:31:03;;;;;;;0.38;0.30;;;14.50;99.90;;;;;;5092521;28;20044;-81
2022/08/09 00:33:30;;;;;;;0.20;0.20;;;14.40;99.90;;;;;;5076273;28;20040;-80
2022/08/09 00:35:59;;;;;;;0.40;0.20;;;14.40;99.90;;;;;;5075871;28;20039;-81
2022/08/09 00:38:26;;;;;;;0.40;0.13;;;14.40;99.90;;;;;;5076361;28;20405;-81
2022/08/09 00:40:53;;;;;;;0.10;0.10;;;14.40;99.90;;;;;;5092859;28;20050;-81
2022/08/09 00:43:23;;;;;;;0.20;0.20;;;14.40;99.90;;;;;;5092535;28;20404;-81
2022/08/09 00:45:50;;;;;;;0.13;0.13;;;14.40;99.90;;;;;;5092185;28;20048;-80
2022/08/09 00:48:16;;;;;;;0.10;0.10;;;14.40;99.90;;;;;;5059020;28;20190;-81
2022/08/09 00:50:43;;;;;;;0.13;0.10;;;14.40;99.90;;;;;;5069435;28;20451;-81
2022/08/09 00:53:11;;;;;;;0.10;0.10;;;14.30;99.90;;;;;;5109097;28;20051;-81
2022/08/09 00:55:39;;;;;;;0.47;0.15;;;14.30;99.90;;;;;;5076180;28;20048;-81
2022/08/09 00:58:05;;;;;;;0.20;0.20;;;14.30;99.90;;;;;;5092752;28;20036;-81
2022/08/09 01:00:34;;;;;;;0.10;0.10;;;14.30;99.90;;;;;;5089785;28;20039;-81
2022/08/09 01:03:12;;;;;;;0.20;0.20;;;14.30;99.90;;;;;;5071996;28;20047;-81
2022/08/09 01:06:03;;;;;;;0.10;0.10;;;14.20;99.90;;;;;;5071753;28;20040;-81
2022/08/09 01:09:04;;;;;;;0.15;0.10;;;14.20;99.90;;;;;;5072069;28;20085;-81
2022/08/09 01:11:57;;;;;;;0.10;0.10;;;14.20;99.90;;;;;;5072122;28;20041;-81
2022/08/09 01:14:37;;;;;;;0.20;0.20;;;14.20;99.90;;;;;;5065259;28;20136;-80
2022/08/09 01:17:21;;;;;;;0.10;0.10;;;14.30;99.90;;;;;;5068570;28;20041;-81
2022/08/09 01:19:57;;;;;;;0.85;0.10;;;14.20;99.90;;;;;;5085161;28;20090;-80
2022/08/09 01:22:39;;;;;;;0.28;0.20;;;14.20;99.90;;;;;;5072028;28;20087;-81
2022/08/09 01:25:41;;;;;;;0.20;0.20;;;14.20;99.90;;;;;;5072807;28;20052;-80
2022/08/09 01:28:09;;;;;;;0.20;0.20;;;14.20;99.90;;;;;;5072452;28;20511;-81
2022/08/09 01:30:39;;;;;;;0.20;0.20;;;14.10;99.90;;;;;;5079358;28;20076;-81
2022/08/09 01:33:08;;;;;;;0.20;0.20;;;14.10;99.90;;;;;;5095958;28;20449;-81
2022/08/09 01:35:39;;;;;;;0.10;0.10;;;14.10;99.90;;;;;;5095728;28;20511;-81
2022/08/09 01:38:10;;;;;;;0.20;0.20;;;14.10;99.90;;;;;;5095059;28;20036;-81
2022/08/09 01:40:42;;;;;;;0.35;0.20;;;14.10;99.90;;;;;;5095908;28;20123;-81
2022/08/09 01:43:10;;;;;;;0.57;0.38;;;14.00;99.90;;;;;;5112217;28;20055;-81
2022/08/09 01:45:39;;;;;;;0.20;0.20;;;14.10;99.90;;;;;;5062967;28;20040;-81
2022/08/09 01:48:07;;;;;;;0.03;0.03;;;14.00;99.90;;;;;;5112264;28;20123;-81
2022/08/09 01:50:35;;;;;;;0.13;0.13;;;14.10;99.90;;;;;;5076847;28;20032;-81
2022/08/09 01:53:03;;;;;;;0.30;0.20;;;14.10;99.90;;;;;;5095638;28;20141;-80
2022/08/09 01:55:32;;;;;;;0.00;0.00;;;14.00;99.90;;;;;;5060843;28;20047;-81
2022/08/09 01:58:00;;;;;;;0.20;0.20;;;14.00;99.90;;;;;;5075042;28;20051;-81
2022/08/09 02:00:28;;;;;;;0.10;0.10;;;14.00;99.90;;;;;;5091696;28;20407;-81
2022/08/09 02:02:57;;;;;;;0.10;0.10;;;14.00;99.90;;;;;;5074963;28;20079;-81
2022/08/09 02:05:24;;;;;;;0.10;0.10;;;14.00;99.90;;;;;;5075249;28;20056;-81
2022/08/09 02:08:02;;;;;;;0.10;0.10;;;14.00;99.90;;;;;;5058352;28;20063;-81
2022/08/09 02:10:31;;;;;;;0.10;0.10;;;14.00;99.90;;;;;;5074804;28;20381;-81
2022/08/09 02:13:02;;;;;;;0.50;0.22;;;14.00;99.90;;;;;;5091295;28;20044;-80
2022/08/09 02:15:34;;;;;;;0.08;0.08;;;13.90;99.90;;;;;;5072998;28;20132;-81
2022/08/09 02:18:03;;;;;;;0.10;0.10;;;13.90;99.90;;;;;;5074980;28;20033;-81
2022/08/09 02:20:32;;;;;;;0.28;0.17;;;13.90;99.90;;;;;;5071267;28;20127;-80
2022/08/09 02:23:07;;;;;;;0.45;0.22;;;13.90;99.90;;;;;;5082754;28;20486;-81
2022/08/09 02:25:38;;;;;;;0.08;0.08;;;13.80;99.90;;;;;;5083323;28;20115;-80
2022/08/09 02:28:19;;;;;;;0.20;0.20;;;13.80;99.90;;;;;;5075640;28;20039;-80
2022/08/09 02:30:53;;;;;;;0.88;0.20;;;13.80;99.90;;;;;;5074452;28;20032;-81
2022/08/09 02:33:23;;;;;;;0.10;0.10;;;13.80;99.90;;;;;;5073286;28;20048;-81
2022/08/09 02:35:57;;;;;;;0.10;0.10;;;13.80;99.90;;;;;;5074704;28;20037;-80
2022/08/09 02:38:29;;;;;;;0.45;0.20;;;13.70;99.90;;;;;;5074301;28;20102;-81
2022/08/09 02:41:02;;;;;;;0.25;0.25;;;13.70;99.90;;;;;;5081121;28;20136;-81
2022/08/09 02:43:31;;;;;;;0.20;0.10;;;13.70;99.90;;;;;;5094335;28;20036;-81
2022/08/09 02:46:02;;;;;;;0.13;0.13;;;13.60;99.90;;;;;;5093873;28;20505;-81
2022/08/09 02:48:32;;;;;;;0.32;0.30;;;13.60;99.90;;;;;;5094486;28;20036;-81
2022/08/09 02:51:01;;;;;;;0.30;0.20;;;13.60;99.90;;;;;;5093864;28;20089;-81
2022/08/09 02:53:32;;;;;;;0.20;0.20;;;13.60;99.90;;;;;;5094432;28;20121;-81
2022/08/09 02:56:02;;;;;;;0.57;0.32;;;13.60;99.90;;;;;;5110718;28;20052;-80
2022/08/09 02:58:31;;;;;;;0.20;0.20;;;13.60;99.90;;;;;;5094095;28;20082;-80
2022/08/09 03:01:00;;;;;;;0.17;0.17;;;13.50;99.90;;;;;;5093723;28;20055;-80
2022/08/09 03:03:28;;;;;;;0.20;0.20;;;13.60;99.90;;;;;;5094190;28;20032;-79
2022/08/09 03:05:57;;;;;;;0.20;0.20;;;13.50;99.90;;;;;;5077271;28;20050;-80
2022/08/09 03:08:25;;;;;;;0.15;0.15;;;13.50;99.90;;;;;;5110883;28;20048;-80
2022/08/09 03:10:53;;;;;;;0.28;0.28;;;13.50;99.90;;;;;;5093569;28;20131;-80
2022/08/09 03:13:21;;;;;;;0.17;0.17;;;13.40;99.90;;;;;;5094215;28;20044;-81
2022/08/09 03:15:48;;;;;;;0.35;0.35;;;13.40;99.90;;;;;;5077012;28;20040;-80
2022/08/09 03:18:16;;;;;;;0.10;0.10;;;13.40;99.90;;;;;;5076755;28;20089;-79
2022/08/09 03:20:43;;;;;;;0.10;0.10;;;13.40;99.90;;;;;;5110082;28;20035;-80
2022/08/09 03:23:13;;;;;;;0.20;0.10;;;13.40;99.90;;;;;;5093108;28;20040;-79
2022/08/09 03:25:41;;;;;;;0.20;0.20;;;13.40;99.90;;;;;;5077259;28;20400;-80
2022/08/09 03:28:10;;;;;;;0.20;0.20;;;13.40;99.90;;;;;;5093343;28;20492;-80
2022/08/09 03:30:37;;;;;;;0.30;0.20;;;13.30;99.90;;;;;;5073329;28;20113;-80
2022/08/09 03:33:08;;;;;;;0.10;0.10;;;13.30;99.90;;;;;;5057068;28;20036;-80
2022/08/09 03:35:35;;;;;;;0.10;0.10;;;13.30;99.90;;;;;;5073262;28;20119;-80
2022/08/09 03:38:02;;;;;;;0.10;0.10;;;13.30;99.90;;;;;;5089601;28;20123;-80
2022/08/09 03:40:32;;;;;;;0.05;0.05;;;13.30;99.90;;;;;;5056852;28;20047;-80
2022/08/09 03:42:59;;;;;;;0.35;0.20;;;13.30;99.90;;;;;;5040667;28;20033;-80
2022/08/09 03:45:25;;;;;;;0.15;0.15;;;13.30;99.90;;;;;;5072950;28;20373;-80
2022/08/09 03:47:52;;;;;;;0.10;0.10;;;13.30;99.90;;;;;;5072619;28;20489;-80
2022/08/09 03:50:21;;;;;;;0.20;0.20;;;13.30;99.90;;;;;;5055785;28;20094;-80
2022/08/09 03:52:48;;;;;;;0.15;0.15;;;13.30;99.90;;;;;;5089326;28;20048;-80
2022/08/09 03:55:16;;;;;;;0.20;0.20;;;13.40;99.90;;;;;;5055791;28;20053;-80
2022/08/09 03:57:43;;;;;;;0.60;0.47;;;13.40;99.90;;;;;;5089729;28;20044;-80
2022/08/09 04:00:10;;;;;;;0.30;0.20;;;13.40;99.90;;;;;;5076245;28;20118;-79
2022/08/09 04:02:38;;;;;;;0.10;0.10;;;13.40;99.90;;;;;;5076348;28;20040;-80
2022/08/09 04:05:06;;;;;;;0.22;0.20;;;13.40;99.90;;;;;;5092014;28;20036;-80
2022/08/09 04:07:33;;;;;;;0.40;0.30;;;13.40;99.90;;;;;;5092945;28;20055;-80
2022/08/09 04:09:59;;;;;;;0.25;0.20;;;13.40;99.90;;;;;;5066718;28;20085;-80
2022/08/09 04:12:49;;;;;;;0.03;0.03;;;13.40;99.90;;;;;;5059716;28;20044;-80
2022/08/09 04:15:18;;;;;;;0.20;0.20;;;13.50;99.90;;;;;;5092206;28;20039;-81
2022/08/09 04:17:45;;;;;;;0.20;0.20;;;13.50;99.90;;;;;;5093307;28;20040;-80
2022/08/09 04:20:13;;;;;;;0.25;0.20;;;13.50;99.90;;;;;;5075647;28;20405;-80
2022/08/09 04:22:40;;;;;;;0.10;0.10;;;13.60;99.90;;;;;;5073756;28;20068;-81
2022/08/09 04:25:08;;;;;;;0.10;0.10;;;13.60;99.90;;;;;;5092246;28;20044;-81
2022/08/09 04:27:40;;;;;;;0.10;0.10;;;13.60;99.90;;;;;;5092339;28;20032;-80
2022/08/09 04:30:12;;;;;;;0.10;0.10;;;13.60;99.90;;;;;;5076732;28;20036;-80
2022/08/09 04:32:40;;;;;;;0.10;0.10;;;13.60;99.90;;;;;;5093158;28;20047;-80
2022/08/09 04:35:09;;;;;;;0.10;0.10;;;13.60;99.90;;;;;;5070148;28;20091;-80
2022/08/09 04:37:37;;;;;;;0.20;0.17;;;13.60;99.90;;;;;;5036359;28;20498;-80
2022/08/09 04:40:06;;;;;;;0.20;0.13;;;13.70;99.90;;;;;;5036057;28;20045;-80
2022/08/09 04:42:33;;;;;;;0.00;0.00;;;13.70;99.90;;;;;;5019937;28;20383;-80
2022/08/09 04:45:00;;;;;;;0.20;0.20;;;13.70;99.90;;;;;;5052499;28;20044;-80
2022/08/09 04:47:28;;;;;;;0.10;0.10;;;13.80;99.90;;;;;;5086028;28;20048;-80
2022/08/09 04:49:55;;;;;;;0.10;0.10;;;13.70;99.90;;;;;;5092977;28;20113;-81
2022/08/09 04:52:24;;;;;;;0.43;0.20;;;13.70;99.90;;;;;;5092253;28;20715;-80
2022/08/09 04:54:51;;;;;;;0.15;0.10;;;13.80;99.90;;;;;;5092413;28;20052;-81
2022/08/09 04:57:18;;;;;;;0.22;0.20;;;13.80;99.90;;;;;;5094912;28;20062;-80
2022/08/09 04:59:48;;;;;;;0.20;0.20;;;13.80;99.90;;;;;;5077104;28;20044;-80
2022/08/09 05:02:15;;;;;;;0.00;0.00;;;13.90;99.90;;;;;;5039494;28;20106;-81
2022/08/09 05:04:41;;;;;;;0.35;0.20;;;13.90;99.90;;;;;;5056994;28;20044;-80
2022/08/09 05:07:08;;;;;;;0.00;0.00;;;14.00;99.90;;;;;;5055992;28;20448;-80
2022/08/09 05:09:35;;;;;;;0.65;0.30;;;14.00;99.90;;;;;;5056263;28;20037;-80
2022/08/09 05:12:02;;;;;;;0.20;0.20;;;14.00;99.90;;;;;;5055977;28;20409;-80
2022/08/09 05:14:30;;;;;;;0.10;0.10;;;14.10;99.90;;;;;;5055677;28;20072;-80
2022/08/09 05:16:58;;;;;;;0.10;0.10;;;14.20;99.90;;;;;;5056461;28;20123;-80
2022/08/09 05:19:28;;;;;;;0.20;0.20;;;14.30;99.90;;;;;;5072309;28;20482;-80
2022/08/09 05:21:55;;;;;;;0.20;0.20;;;14.40;99.90;;;;;;5056334;28;20094;-80
2022/08/09 05:24:23;;;;;;;0.10;0.10;;;14.50;99.90;;;;;;5069161;28;20041;-81
2022/08/09 05:26:51;;;;;;;0.05;0.05;;;14.50;99.90;;;;;;5091801;28;20075;-80
2022/08/09 05:29:18;;;;;;;0.30;0.30;;;14.60;99.90;;;;;;5079143;28;20070;-80
2022/08/09 05:31:47;;;;;;;0.10;0.10;;;14.60;99.90;;;;;;5079617;28;20036;-80
2022/08/09 05:34:14;;;;;;;0.10;0.10;;;14.70;99.90;;;;;;5095717;28;20048;-80
2022/08/09 05:36:42;;;;;;;0.00;0.00;;;14.80;99.90;;;;;;5083508;28;20032;-80
2022/08/09 05:39:09;;;;;;;0.03;0.03;;;14.90;99.90;;;;;;5043001;28;20044;-80
2022/08/09 05:41:35;;;;;;;0.10;0.10;;;14.90;99.90;;;;;;5042492;28;20037;-80
2022/08/09 05:44:02;;;;;;;0.30;0.20;;;15.00;99.90;;;;;;5075243;28;20405;-80
2022/08/09 05:46:29;;;;;;;0.00;0.00;;;15.00;99.90;;;;;;5074859;28;20036;-80
2022/08/09 05:48:57;;;;;;;0.20;0.20;;;15.10;99.90;;;;;;5087784;28;20044;-80
2022/08/09 05:51:23;;;;;;;0.10;0.10;;;15.20;99.90;;;;;;5081577;28;20040;-80
2022/08/09 05:53:50;;;;;;;0.20;0.10;;;15.30;99.90;;;;;;5074329;28;20832;-80
2022/08/09 05:56:17;;;;;;;0.17;0.17;;;15.30;99.90;;;;;;5074475;28;20195;-80
2022/08/09 05:58:44;;;;;;;0.05;0.05;;;15.40;99.90;;;;;;5090489;28;20123;-80
2022/08/09 06:01:11;;;;;;;0.25;0.20;;;15.40;99.90;;;;;;5058496;28;20098;-80
2022/08/09 06:03:37;;;;;;;0.30;0.28;;;15.50;99.90;;;;;;5058504;28;20047;-80
2022/08/09 06:06:04;;;;;;;0.10;0.10;;;15.50;99.90;;;;;;5058350;28;20435;-80
2022/08/09 06:08:31;;;;;;;0.30;0.20;;;15.60;99.90;;;;;;5057215;28;20044;-80
2022/08/09 06:11:00;;;;;;;0.45;0.20;;;15.70;99.90;;;;;;5074752;28;20094;-80
2022/08/09 06:13:27;;;;;;;0.15;0.15;;;15.70;99.90;;;;;;5093166;28;20098;-81
2022/08/09 06:15:54;;;;;;;0.20;0.20;;;15.80;99.90;;;;;;5074853;28;20040;-80
2022/08/09 06:18:21;;;;;;;0.03;0.03;;;15.80;99.90;;;;;;5058003;28;20504;-80
2022/08/09 06:20:48;;;;;;;0.35;0.32;;;15.90;99.90;;;;;;5070981;28;20045;-81
2022/08/09 06:23:15;;;;;;;0.15;0.15;;;16.00;99.90;;;;;;5058443;28;20033;-81
2022/08/09 06:25:41;;;;;;;0.52;0.43;;;16.00;99.90;;;;;;5057440;28;20089;-80
2022/08/09 06:28:08;;;;;;;0.30;0.30;;;16.10;99.90;;;;;;5057663;28;20056;-80
2022/08/09 06:30:35;;;;;;;0.40;0.20;;;16.20;99.90;;;;;;5057702;28;20089;-80
2022/08/09 06:33:01;;;;;;;0.08;0.08;;;16.30;99.90;;;;;;5041643;28;20040;-80
2022/08/09 06:35:28;;;;;;;0.00;0.00;;;16.30;99.90;;;;;;5057372;28;20040;-79
2022/08/09 06:37:55;;;;;;;0.10;0.10;;;16.50;99.90;;;;;;5080070;28;20036;-80
2022/08/09 06:40:22;;;;;;;0.05;0.05;;;16.50;99.90;;;;;;5048782;28;20091;-80
2022/08/09 06:42:49;;;;;;;0.13;0.13;;;16.60;99.90;;;;;;5057823;28;20072;-80
2022/08/09 06:45:15;;;;;;;0.00;0.00;;;16.70;99.90;;;;;;5057973;28;20044;-80
2022/08/09 06:47:42;;;;;;;0.10;0.10;;;16.70;99.90;;;;;;5057426;28;20041;-80
2022/08/09 06:50:10;;;;;;;1.20;0.45;;;16.80;99.90;;;;;;5079375;28;20036;-80
2022/08/09 06:52:44;;;;;;;0.10;0.10;;;16.90;99.90;;;;;;5072352;28;20841;-80
2022/08/09 06:55:22;;;;;;;0.40;0.22;;;17.00;99.90;;;;;;5070047;28;20061;-80
2022/08/09 06:57:49;;;;;;;0.08;0.08;;;17.10;99.90;;;;;;5070753;28;20045;-81
2022/08/09 07:00:16;;;;;;;0.05;0.05;;;17.10;99.90;;;;;;5057535;28;20119;-80
2022/08/09 07:02:44;;;;;;;0.47;0.28;;;17.20;99.90;;;;;;5040582;28;20912;-80
2022/08/09 07:05:11;;;;;;;0.10;0.10;;;17.30;99.90;;;;;;5057800;28;20032;-81
2022/08/09 07:07:37;;;;;;;0.10;0.10;;;17.40;99.90;;;;;;5033239;28;20375;-79
2022/08/09 07:10:05;;;;;;;0.30;0.20;;;17.60;99.90;;;;;;5053831;28;20482;-79
2022/08/09 07:12:31;;;;;;;1.13;0.40;;;17.70;99.90;;;;;;5020935;28;20481;-81
2022/08/09 07:14:58;;;;;;;0.10;0.10;;;17.80;99.90;;;;;;5053746;28;20053;-80
2022/08/09 07:17:25;;;;;;;0.10;0.10;;;18.00;99.90;;;;;;5039417;28;20044;-80
2022/08/09 07:19:51;;;;;;;0.20;0.20;;;18.00;99.90;;;;;;5040438;28;20112;-81
2022/08/09 07:22:18;;;;;;;0.30;0.20;;;18.10;99.90;;;;;;5041110;28;20405;-80
2022/08/09 07:24:45;;;;;;;0.00;0.00;;;18.20;99.90;;;;;;5056832;28;20032;-81
2022/08/09 07:27:12;;;;;;;0.15;0.00;;;18.30;99.90;;;;;;5057306;28;20048;-82
2022/08/09 07:29:39;;;;;;;0.10;0.10;;;18.40;99.90;;;;;;5040643;28;20037;-81
2022/08/09 07:32:06;;;;;;;0.10;0.10;;;18.40;99.90;;;;;;5073892;28;20043;-81
2022/08/09 07:34:34;;;;;;;0.00;0.00;;;18.50;99.90;;;;;;5056483;28;20048;-81
2022/08/09 07:37:00;;;;;;;0.00;0.00;;;18.70;99.90;;;;;;5076905;28;20043;-81
2022/08/09 07:39:27;;;;;;;0.00;0.00;;;18.70;99.90;;;;;;5092944;28;20517;-80
2022/08/09 07:41:54;;;;;;;0.20;0.10;;;18.70;99.90;;;;;;5076026;28;20055;-81
2022/08/09 07:44:21;;;;;;;0.20;0.20;;;18.60;99.90;;;;;;5093340;28;20036;-80
2022/08/09 07:46:47;;;;;;;0.10;0.10;;;18.50;99.90;;;;;;5092195;28;20097;-79
2022/08/09 07:49:14;;;;;;;0.00;0.00;;;18.50;99.90;;;;;;5075854;28;20094;-80
2022/08/09 07:51:41;;;;;;;0.10;0.10;;;18.60;99.90;;;;;;5101592;28;20117;-80
2022/08/09 07:54:08;;;;;;;0.10;0.10;;;18.60;99.90;;;;;;5063265;28;20199;-80
2022/08/09 07:56:36;;;;;;;0.10;0.10;;;18.80;99.90;;;;;;5051800;28;20095;-80
2022/08/09 07:59:06;;;;;;;0.30;0.20;;;18.90;99.90;;;;;;5052275;28;20049;-80
2022/08/09 08:01:34;;;;;;;0.30;0.10;;;19.00;99.90;;;;;;5068363;28;20037;-80
2022/08/09 08:04:01;;;;;;;0.10;0.10;;;19.10;99.90;;;;;;5066917;28;20037;-80
2022/08/09 08:06:29;;;;;;;0.10;0.10;;;19.30;99.90;;;;;;5084923;28;20044;-79
2022/08/09 08:08:56;;;;;;;0.20;0.20;;;19.40;99.90;;;;;;5067639;28;20041;-78
2022/08/09 08:11:23;;;;;;;0.10;0.10;;;19.50;99.90;;;;;;5051604;28;20078;-79
2022/08/09 08:13:50;;;;;;;0.22;0.22;;;19.60;99.90;;;;;;5051167;28;20123;-79
2022/08/09 08:16:16;;;;;;;0.20;0.15;;;19.70;99.90;;;;;;5070588;28;20107;-79
2022/08/09 08:18:43;;;;;;;0.03;0.03;;;19.80;99.90;;;;;;5084197;28;20558;-79
2022/08/09 08:21:10;;;;;;;0.10;0.10;;;19.90;99.90;;;;;;5051545;28;20045;-79
2022/08/09 08:23:36;;;;;;;0.13;0.10;;;20.00;99.90;;;;;;5035470;28;20076;-79
2022/08/09 08:26:03;;;;;;;0.15;0.13;;;20.10;99.90;;;;;;5051609;28;20041;-78
2022/08/09 08:28:30;;;;;;;0.10;0.10;;;20.10;99.90;;;;;;5069462;28;20106;-82
2022/08/09 08:30:56;;;;;;;0.10;0.10;;;20.30;99.90;;;;;;5068360;28;20490;-82
2022/08/09 08:33:23;;;;;;;0.05;0.05;;;20.40;99.90;;;;;;5036503;28;20053;-84
2022/08/09 08:35:51;;;;;;;0.20;0.15;;;20.40;99.90;;;;;;5036096;28;20508;-81
2022/08/09 08:38:17;;;;;;;0.10;0.10;;;20.40;99.90;;;;;;5069584;28;20041;-81
2022/08/09 08:40:44;;;;;;;0.10;0.10;;;20.40;99.90;;;;;;5053434;28;20037;-82
2022/08/09 08:43:12;;;;;;;0.13;0.13;;;20.60;99.90;;;;;;5052574;28;20087;-81
2022/08/09 08:45:48;;;;;;;0.00;0.00;;;20.70;99.90;;;;;;5069324;28;20044;-83
2022/08/09 08:48:16;;;;;;;0.20;0.20;;;20.90;99.90;;;;;;5085921;28;20498;-86
2022/08/09 08:50:46;;;;;;;0.30;0.10;;;21.00;99.90;;;;;;5065027;28;20438;-82
2022/08/09 08:53:16;;;;;;;0.10;0.10;;;20.90;99.90;;;;;;5069059;28;20036;-80
2022/08/09 08:55:43;;;;;;;0.08;0.08;;;21.00;99.90;;;;;;5062323;28;20049;-85
2022/08/09 08:58:10;;;;;;;0.08;0.08;;;21.20;99.90;;;;;;5034023;28;20036;-86
2022/08/09 09:00:41;;;;;;;0.20;0.15;;;21.30;99.90;;;;;;5052053;28;20486;-80
2022/08/09 09:03:10;;;;;;;0.00;0.00;;;21.50;99.90;;;;;;5050254;28;20077;-86
2022/08/09 09:05:37;;;;;;;0.10;0.10;;;21.60;99.90;;;;;;5045660;28;20072;-82
2022/08/09 09:08:05;;;;;;;0.10;0.10;;;21.60;99.90;;;;;;5018369;28;20546;-87
2022/08/09 09:10:33;;;;;;;0.03;0.03;;;21.60;99.90;;;;;;5036568;28;20490;-87
2022/08/09 09:13:00;;;;;;;0.10;0.10;;;21.60;99.90;;;;;;5019659;28;20047;-86
2022/08/09 09:15:27;;;;;;;0.10;0.10;;;21.50;99.90;;;;;;5036375;28;20780;-88
2022/08/09 09:17:53;;;;;;;0.00;0.00;;;21.30;99.90;;;;;;5058444;28;20047;-82
2022/08/09 09:20:20;;;;;;;0.20;0.20;;;21.40;99.90;;;;;;5055251;28;20044;-81
2022/08/09 09:22:50;;;;;;;0.10;0.10;;;21.50;99.90;;;;;;5037996;28;20040;-85
2022/08/09 09:25:33;;;;;;;0.17;0.10;;;21.70;99.90;;;;;;5067975;28;20126;-81
2022/08/09 09:28:01;;;;;;;0.10;0.10;;;21.80;99.90;;;;;;5050404;28;20040;-81
2022/08/09 09:30:28;;;;;;;0.17;0.15;;;21.90;99.90;;;;;;5043886;28;20150;-85
2022/08/09 09:33:11;;;;;;;0.00;0.00;;;21.80;99.90;;;;;;5072096;28;20078;-83
2022/08/09 09:35:58;;;;;;;0.10;0.10;;;21.90;99.90;;;;;;5088321;28;20101;-82
2022/08/09 09:38:49;;;;;;;0.30;0.20;;;21.70;99.90;;;;;;5057606;28;20161;-83
2022/08/09 09:41:22;;;;;;;0.20;0.20;;;21.60;99.90;;;;;;5051733;28;20037;-83
2022/08/09 09:43:49;;;;;;;0.03;0.03;;;21.70;99.90;;;;;;5053010;28;20507;-84
2022/08/09 09:46:16;;;;;;;0.13;0.13;;;21.90;99.90;;;;;;5035865;28;20045;-83
2022/08/09 09:49:05;;;;;;;0.10;0.10;;;22.00;99.90;;;;;;5018764;28;20481;-83
2022/08/09 09:51:34;;;;;;;0.10;0.10;;;22.10;99.90;;;;;;5035319;28;20406;-83
2022/08/09 09:54:16;;;;;;;0.10;0.10;;;22.10;99.90;;;;;;5043279;28;20095;-84
2022/08/09 09:56:44;;;;;;;0.10;0.10;;;21.90;99.90;;;;;;5074761;28;20087;-85
2022/08/09 09:59:14;;;;;;;0.10;0.10;;;22.00;99.90;;;;;;5104365;28;20509;-85
2022/08/09 10:01:45;;;;;;;0.20;0.20;;;22.10;99.90;;;;;;5087837;28;20101;-84
2022/08/09 10:04:14;;;;;;;0.10;0.10;;;22.10;99.90;;;;;;5045223;28;20048;-84
2022/08/09 10:06:43;;;;;;;0.15;0.15;;;22.30;99.90;;;;;;5068666;28;20045;-80
2022/08/09 10:09:12;;;;;;;0.10;0.10;;;22.30;99.90;;;;;;5070188;28;20033;-83
2022/08/09 10:11:39;;;;;;;0.15;0.15;;;22.50;99.90;;;;;;5054421;28;20049;-87
2022/08/09 10:14:23;;;;;;;0.10;0.10;;;22.70;99.90;;;;;;5071836;28;20048;-87
2022/08/09 10:16:50;;;;;;;0.30;0.20;;;22.80;99.90;;;;;;5071568;28;20052;-87
2022/08/09 10:19:18;;;;;;;2.72;0.30;;;22.80;99.90;;;;;;5054869;28;20076;-83
2022/08/09 10:21:47;;;;;;;0.17;0.17;;;22.90;99.90;;;;;;5087306;28;20036;-88
2022/08/09 10:24:20;;;;;;;0.05;0.05;;;22.70;99.90;;;;;;5071778;28;20040;-88
2022/08/09 10:26:47;;;;;;;0.10;0.10;;;22.80;99.90;;;;;;5054783;28;20037;-89
2022/08/09 10:29:14;;;;;;;0.30;0.28;;;23.00;99.90;;;;;;5055393;28;20098;-89
2022/08/09 10:31:41;;;;;;;0.10;0.10;;;23.10;99.90;;;;;;5088386;28;20079;-87
2022/08/09 10:34:11;;;;;;;0.22;0.17;;;23.20;99.90;;;;;;5054491;28;20075;-88
2022/08/09 10:36:38;;;;;;;0.10;0.10;;;23.20;99.90;;;;;;5055416;28;20131;-86
2022/08/09 10:39:05;;;;;;;0.10;0.10;;;23.40;99.90;;;;;;5055020;28;20079;-88
2022/08/09 10:41:34;;;;;;;0.00;0.00;;;23.60;99.90;;;;;;5038627;28;20068;-87
2022/08/09 10:44:01;;;;;;;0.43;0.25;;;23.80;99.90;;;;;;5054780;28;20043;-86
2022/08/09 10:47:09;;;;;;;0.10;0.10;;;23.90;99.90;;;;;;5079280;28;20182;-90
2022/08/09 10:50:04;;;;;;;0.10;0.10;;;24.00;99.90;;;;;;5051282;28;20045;-87
2022/08/09 10:53:00;;;;;;;0.00;0.00;;;24.10;99.90;;;;;;5053107;28;20049;-89
2022/08/09 10:55:29;;;;;;;0.20;0.10;;;24.20;99.90;;;;;;5082868;28;20125;-87
2022/08/09 10:57:56;;;;;;;0.10;0.10;;;24.30;99.90;;;;;;5053801;28;20051;-87
2022/08/09 11:00:34;;;;;;;0.20;0.20;;;24.40;99.90;;;;;;5070935;28;20072;-86
2022/08/09 11:03:01;;;;;;;0.20;0.20;;;24.40;99.90;;;;;;5070466;28;20072;-89
2022/08/09 11:05:28;;;;;;;0.88;0.20;;;24.50;99.90;;;;;;5054580;28;20041;-87
2022/08/09 11:07:55;;;;;;;0.10;0.10;;;24.50;99.90;;;;;;5070890;28;20036;-86
2022/08/09 11:10:40;;;;;;;0.00;0.00;;;24.50;99.90;;;;;;5054921;28;20035;-88
2022/08/09 11:13:14;;;;;;;0.03;0.03;;;24.40;99.90;;;;;;5068136;28;20045;-89
2022/08/09 11:15:41;;;;;;;2.78;0.28;;;24.50;99.90;;;;;;5054771;28;20095;-89
2022/08/09 11:18:11;;;;;;;0.13;0.13;;;24.70;99.90;;;;;;5070618;28;20045;-87
2022/08/09 11:20:46;;;;;;;0.10;0.10;;;24.60;99.90;;;;;;5070294;28;20144;-86
2022/08/09 11:23:16;;;;;;;0.10;0.10;;;24.70;99.90;;;;;;5070560;28;20036;-92
2022/08/09 11:25:45;;;;;;;0.20;0.20;;;24.70;99.90;;;;;;5071182;28;20128;-85
2022/08/09 11:28:36;;;;;;;0.20;0.20;;;24.80;99.90;;;;;;5054024;28;20723;-90
2022/08/09 11:31:23;;;;;;;0.10;0.10;;;24.80;99.90;;;;;;5069924;28;20073;-89
2022/08/09 11:33:55;;;;;;;0.03;0.03;;;24.80;99.90;;;;;;5068532;28;20037;-85
2022/08/09 11:36:25;;;;;;;0.05;0.05;;;24.80;99.90;;;;;;5086121;28;20069;-91
2022/08/09 11:39:00;;;;;;;0.00;0.00;;;24.90;99.90;;;;;;5070188;28;20040;-85
2022/08/09 11:41:28;;;;;;;0.20;0.20;;;24.90;99.90;;;;;;5054149;28;20414;-86
2022/08/09 11:43:56;;;;;;;0.08;0.08;;;24.90;99.90;;;;;;5087211;28;20489;-86
2022/08/09 11:46:23;;;;;;;0.10;0.10;;;24.90;99.90;;;;;;5053755;28;20041;-86
2022/08/09 11:48:52;;;;;;;0.10;0.10;;;24.90;99.90;;;;;;5055230;28;20497;-86
2022/08/09 11:51:21;;;;;;;0.17;0.17;;;24.90;99.90;;;;;;5070436;28;20124;-89
2022/08/09 11:54:08;;;;;;;0.30;0.10;;;25.00;99.90;;;;;;5055511;28;20083;-89
2022/08/09 11:56:35;;;;;;;0.10;0.10;;;24.90;99.90;;;;;;5069861;28;20078;-89
2022/08/09 11:59:01;;;;;;;0.20;0.20;;;24.90;99.90;;;;;;5037585;28;20045;-86
2022/08/09 12:01:36;;;;;;;0.10;0.10;;;24.90;99.90;;;;;;5054286;28;20167;-88
2022/08/09 12:04:07;;;;;;;0.10;0.10;;;24.90;99.90;;;;;;5073205;28;20062;-89
2022/08/09 12:06:34;;;;;;;0.10;0.10;;;25.00;99.90;;;;;;5070088;28;20041;-87
2022/08/09 12:09:08;;;;;;;0.10;0.10;;;25.00;99.90;;;;;;5068899;28;20094;-87
2022/08/09 12:11:35;;;;;;;0.28;0.17;;;24.90;99.90;;;;;;5105256;28;20123;-87
2022/08/09 12:14:10;;;;;;;0.10;0.10;;;25.00;99.90;;;;;;5072403;28;20033;-90
2022/08/09 12:16:38;;;;;;;;;;;25.00;99.90;;;;;;5073150;28;20047;-90
2022/08/09 12:19:12;;;;;;;0.20;0.20;;;25.00;99.80;;;;;;5073389;28;19916;-89
2022/08/09 12:21:43;;;;;;;0.10;0.10;;;25.10;99.90;;;;;;5057711;28;20074;-87
2022/08/09 12:24:18;;;;;;;0.15;0.15;;;25.10;99.90;;;;;;5091942;28;20375;-86
2022/08/09 12:26:49;;;;;;;;;;;25.10;99.90;;;;;;5081183;28;20119;-90
2022/08/09 12:29:18;;;;;;;0.10;0.10;;;25.10;99.90;;;;;;5070244;28;19916;-88
2022/08/09 12:31:48;;;;;;;0.10;0.10;;;25.20;99.90;;;;;;5060627;28;20044;-89
2022/08/09 12:34:16;;;;;;;0.10;0.10;;;25.20;99.90;;;;;;5073362;28;20052;-87
2022/08/09 12:36:54;;;;;;;0.10;0.10;;;25.20;99.90;;;;;;5073585;28;20033;-88
2022/08/09 12:39:21;;;;;;;0.17;0.17;;;25.20;99.90;;;;;;5073227;28;20041;-91
2022/08/09 12:41:48;;;;;;;0.10;0.10;;;25.10;99.90;;;;;;5072979;28;20077;-86
2022/08/09 12:44:15;;;;;;;0.13;0.10;;;25.20;99.90;;;;;;5056753;28;20033;-87
2022/08/09 12:46:45;;;;;;;0.20;0.20;;;25.20;99.90;;;;;;5056764;28;20519;-91
2022/08/09 12:49:13;;;;;;;0.20;0.20;;;25.30;99.90;;;;;;5072854;28;20044;-90
2022/08/09 12:51:51;;;;;;;0.10;0.10;;;25.30;99.90;;;;;;5075692;28;20044;-89
2022/08/09 12:54:18;;;;;;;0.20;0.20;;;25.30;99.00;;;;;;5072405;28;20067;-91
2022/08/09 12:56:47;;;;;;;0.20;0.20;;;25.30;99.90;;;;;;5071003;28;20040;-87
2022/08/09 12:59:15;;;;;;;0.35;0.13;;;25.30;99.90;;;;;;5072390;28;20543;-87
2022/08/09 13:01:57;;;;;;;0.10;0.10;;;25.30;99.90;;;;;;5073821;28;20044;-90